sensor_id;sensor_type;location;lat;lon;timestamp;temperature;humidity
80258;DHT22;69565;37.974;23.708;2023-08-30T00:00:41;29.30;46.50
80258;DHT22;69565;37.974;23.708;2023-08-30T00:03:07;29.30;46.40
80258;DHT22;69565;37.974;23.708;2023-08-30T00:05:38;29.20;46.30
80258;DHT22;69565;37.974;23.708;2023-08-30T00:08:04;29.30;46.30
80258;DHT22;69565;37.974;23.708;2023-08-30T00:10:29;29.30;46.20
80258;DHT22;69565;37.974;23.708;2023-08-30T00:12:55;29.20;46.10
80258;DHT22;69565;37.974;23.708;2023-08-30T00:15:21;29.30;46.10
80258;DHT22;69565;37.974;23.708;2023-08-30T00:17:47;29.30;46.00
80258;DHT22;69565;37.974;23.708;2023-08-30T00:20:13;29.30;45.90
80258;DHT22;69565;37.974;23.708;2023-08-30T00:22:39;29.30;45.80
80258;DHT22;69565;37.974;23.708;2023-08-30T00:25:05;29.20;45.60
80258;DHT22;69565;37.974;23.708;2023-08-30T00:27:31;29.20;45.50
80258;DHT22;69565;37.974;23.708;2023-08-30T00:29:56;29.20;45.40
80258;DHT22;69565;37.974;23.708;2023-08-30T00:32:22;29.30;45.30
80258;DHT22;69565;37.974;23.708;2023-08-30T00:34:52;29.20;45.10
80258;DHT22;69565;37.974;23.708;2023-08-30T00:37:18;29.20;45.00
80258;DHT22;69565;37.974;23.708;2023-08-30T00:39:43;29.20;44.90
80258;DHT22;69565;37.974;23.708;2023-08-30T00:42:10;29.20;44.80
80258;DHT22;69565;37.974;23.708;2023-08-30T00:44:36;29.20;44.80
80258;DHT22;69565;37.974;23.708;2023-08-30T00:47:02;29.20;44.70
80258;DHT22;69565;37.974;23.708;2023-08-30T00:49:32;29.20;44.70
80258;DHT22;69565;37.974;23.708;2023-08-30T00:52:00;29.20;44.70
80258;DHT22;69565;37.974;23.708;2023-08-30T00:54:26;29.20;44.70
80258;DHT22;69565;37.974;23.708;2023-08-30T00:56:51;29.20;44.70
80258;DHT22;69565;37.974;23.708;2023-08-30T00:59:18;29.20;44.60
80258;DHT22;69565;37.974;23.708;2023-08-30T01:01:44;29.20;44.60
80258;DHT22;69565;37.974;23.708;2023-08-30T01:04:10;29.20;44.60
80258;DHT22;69565;37.974;23.708;2023-08-30T01:06:36;29.20;44.40
80258;DHT22;69565;37.974;23.708;2023-08-30T01:09:03;29.20;44.40
80258;DHT22;69565;37.974;23.708;2023-08-30T01:11:36;29.20;44.40
80258;DHT22;69565;37.974;23.708;2023-08-30T01:14:09;29.10;44.10
80258;DHT22;69565;37.974;23.708;2023-08-30T01:16:36;29.10;44.10
80258;DHT22;69565;37.974;23.708;2023-08-30T01:22:03;29.10;43.90
80258;DHT22;69565;37.974;23.708;2023-08-30T01:24:45;29.10;43.80
80258;DHT22;69565;37.974;23.708;2023-08-30T01:27:15;29.10;43.80
80258;DHT22;69565;37.974;23.708;2023-08-30T01:29:44;29.10;43.70
80258;DHT22;69565;37.974;23.708;2023-08-30T01:32:10;29.10;43.70
80258;DHT22;69565;37.974;23.708;2023-08-30T01:34:38;29.10;43.60
80258;DHT22;69565;37.974;23.708;2023-08-30T01:37:07;29.00;43.50
80258;DHT22;69565;37.974;23.708;2023-08-30T01:39:36;29.10;43.50
80258;DHT22;69565;37.974;23.708;2023-08-30T01:42:02;29.10;43.30
80258;DHT22;69565;37.974;23.708;2023-08-30T01:44:30;29.10;43.20
80258;DHT22;69565;37.974;23.708;2023-08-30T01:46:58;29.10;43.20
80258;DHT22;69565;37.974;23.708;2023-08-30T01:49:25;29.10;43.20
80258;DHT22;69565;37.974;23.708;2023-08-30T01:51:52;29.10;42.90
80258;DHT22;69565;37.974;23.708;2023-08-30T01:54:18;29.10;42.80
80258;DHT22;69565;37.974;23.708;2023-08-30T01:56:47;29.10;42.60
80258;DHT22;69565;37.974;23.708;2023-08-30T01:59:13;29.10;42.50
80258;DHT22;69565;37.974;23.708;2023-08-30T02:01:39;29.10;42.40
80258;DHT22;69565;37.974;23.708;2023-08-30T02:04:05;29.10;42.10
80258;DHT22;69565;37.974;23.708;2023-08-30T02:06:45;29.10;42.00
80258;DHT22;69565;37.974;23.708;2023-08-30T02:09:50;29.10;42.00
80258;DHT22;69565;37.974;23.708;2023-08-30T02:12:22;29.00;41.80
80258;DHT22;69565;37.974;23.708;2023-08-30T02:14:50;29.00;41.90
80258;DHT22;69565;37.974;23.708;2023-08-30T02:17:17;29.00;42.00
80258;DHT22;69565;37.974;23.708;2023-08-30T02:19:43;29.00;42.00
80258;DHT22;69565;37.974;23.708;2023-08-30T02:22:09;29.00;42.00
80258;DHT22;69565;37.974;23.708;2023-08-30T02:24:35;29.00;42.00
80258;DHT22;69565;37.974;23.708;2023-08-30T02:27:01;29.00;42.10
80258;DHT22;69565;37.974;23.708;2023-08-30T02:29:27;29.00;42.10
80258;DHT22;69565;37.974;23.708;2023-08-30T02:31:52;29.00;42.10
80258;DHT22;69565;37.974;23.708;2023-08-30T02:34:18;29.00;42.10
80258;DHT22;69565;37.974;23.708;2023-08-30T02:36:44;29.00;42.10
80258;DHT22;69565;37.974;23.708;2023-08-30T02:39:13;29.00;42.00
80258;DHT22;69565;37.974;23.708;2023-08-30T02:41:39;29.00;42.00
80258;DHT22;69565;37.974;23.708;2023-08-30T02:44:07;29.00;42.00
80258;DHT22;69565;37.974;23.708;2023-08-30T02:46:33;29.00;41.90
80258;DHT22;69565;37.974;23.708;2023-08-30T02:48:59;29.00;41.90
80258;DHT22;69565;37.974;23.708;2023-08-30T02:51:25;29.00;41.80
80258;DHT22;69565;37.974;23.708;2023-08-30T02:53:51;29.00;41.80
80258;DHT22;69565;37.974;23.708;2023-08-30T02:56:16;29.00;41.60
80258;DHT22;69565;37.974;23.708;2023-08-30T02:58:42;28.90;41.60
80258;DHT22;69565;37.974;23.708;2023-08-30T03:01:08;28.90;41.60
80258;DHT22;69565;37.974;23.708;2023-08-30T03:03:34;29.00;41.80
80258;DHT22;69565;37.974;23.708;2023-08-30T03:06:01;29.00;41.90
80258;DHT22;69565;37.974;23.708;2023-08-30T03:08:28;29.00;41.90
80258;DHT22;69565;37.974;23.708;2023-08-30T03:10:54;29.00;41.90
80258;DHT22;69565;37.974;23.708;2023-08-30T03:13:19;29.00;41.90
80258;DHT22;69565;37.974;23.708;2023-08-30T03:15:45;28.90;41.80
80258;DHT22;69565;37.974;23.708;2023-08-30T03:18:11;29.00;41.90
80258;DHT22;69565;37.974;23.708;2023-08-30T03:20:36;28.90;41.80
80258;DHT22;69565;37.974;23.708;2023-08-30T03:23:02;28.90;41.90
80258;DHT22;69565;37.974;23.708;2023-08-30T03:25:31;28.90;41.90
80258;DHT22;69565;37.974;23.708;2023-08-30T03:27:56;28.90;41.90
80258;DHT22;69565;37.974;23.708;2023-08-30T03:30:22;28.90;42.00
80258;DHT22;69565;37.974;23.708;2023-08-30T03:32:48;28.90;42.10
80258;DHT22;69565;37.974;23.708;2023-08-30T03:35:13;28.90;42.00
80258;DHT22;69565;37.974;23.708;2023-08-30T03:37:41;28.90;42.00
80258;DHT22;69565;37.974;23.708;2023-08-30T03:40:07;28.90;42.10
80258;DHT22;69565;37.974;23.708;2023-08-30T03:42:34;28.90;42.20
80258;DHT22;69565;37.974;23.708;2023-08-30T03:45:00;28.90;42.40
80258;DHT22;69565;37.974;23.708;2023-08-30T03:47:26;28.90;42.40
80258;DHT22;69565;37.974;23.708;2023-08-30T03:49:52;28.80;42.40
80258;DHT22;69565;37.974;23.708;2023-08-30T03:52:17;28.90;42.60
80258;DHT22;69565;37.974;23.708;2023-08-30T03:54:43;28.80;42.70
80258;DHT22;69565;37.974;23.708;2023-08-30T03:57:09;28.80;42.90
80258;DHT22;69565;37.974;23.708;2023-08-30T03:59:34;28.80;42.80
80258;DHT22;69565;37.974;23.708;2023-08-30T04:02:00;28.80;42.90
80258;DHT22;69565;37.974;23.708;2023-08-30T04:04:26;28.80;42.90
80258;DHT22;69565;37.974;23.708;2023-08-30T04:06:52;28.80;42.90
80258;DHT22;69565;37.974;23.708;2023-08-30T04:09:17;28.90;43.20
80258;DHT22;69565;37.974;23.708;2023-08-30T04:11:44;28.90;43.90
80258;DHT22;69565;37.974;23.708;2023-08-30T04:14:09;28.80;43.60
80258;DHT22;69565;37.974;23.708;2023-08-30T04:16:35;28.80;43.10
80258;DHT22;69565;37.974;23.708;2023-08-30T04:19:01;28.80;42.80
80258;DHT22;69565;37.974;23.708;2023-08-30T04:21:26;28.80;42.90
80258;DHT22;69565;37.974;23.708;2023-08-30T04:23:52;28.80;43.20
80258;DHT22;69565;37.974;23.708;2023-08-30T04:26:18;28.90;43.90
80258;DHT22;69565;37.974;23.708;2023-08-30T04:28:43;28.90;44.40
80258;DHT22;69565;37.974;23.708;2023-08-30T04:31:09;28.90;44.60
80258;DHT22;69565;37.974;23.708;2023-08-30T04:33:35;28.90;44.90
80258;DHT22;69565;37.974;23.708;2023-08-30T04:36:00;28.90;45.00
80258;DHT22;69565;37.974;23.708;2023-08-30T04:38:29;29.00;45.10
80258;DHT22;69565;37.974;23.708;2023-08-30T04:40:58;29.00;45.00
80258;DHT22;69565;37.974;23.708;2023-08-30T04:43:26;29.00;44.90
80258;DHT22;69565;37.974;23.708;2023-08-30T04:45:52;29.10;45.00
80258;DHT22;69565;37.974;23.708;2023-08-30T04:48:18;29.20;45.00
80258;DHT22;69565;37.974;23.708;2023-08-30T04:50:44;29.20;44.90
80258;DHT22;69565;37.974;23.708;2023-08-30T04:53:10;29.20;44.60
80258;DHT22;69565;37.974;23.708;2023-08-30T04:55:36;29.30;44.10
80258;DHT22;69565;37.974;23.708;2023-08-30T04:58:01;29.40;43.90
80258;DHT22;69565;37.974;23.708;2023-08-30T05:00:28;29.40;43.60
80258;DHT22;69565;37.974;23.708;2023-08-30T05:02:53;29.40;43.50
80258;DHT22;69565;37.974;23.708;2023-08-30T05:05:19;29.50;43.30
80258;DHT22;69565;37.974;23.708;2023-08-30T05:07:45;29.50;43.10
80258;DHT22;69565;37.974;23.708;2023-08-30T05:10:10;29.60;42.80
80258;DHT22;69565;37.974;23.708;2023-08-30T05:12:36;29.60;42.50
80258;DHT22;69565;37.974;23.708;2023-08-30T05:15:02;29.60;42.40
80258;DHT22;69565;37.974;23.708;2023-08-30T05:17:32;29.60;42.10
80258;DHT22;69565;37.974;23.708;2023-08-30T05:19:58;29.70;41.80
80258;DHT22;69565;37.974;23.708;2023-08-30T05:22:24;29.70;41.60
80258;DHT22;69565;37.974;23.708;2023-08-30T05:24:49;29.70;41.50
80258;DHT22;69565;37.974;23.708;2023-08-30T05:27:15;29.80;41.40
80258;DHT22;69565;37.974;23.708;2023-08-30T05:29:43;29.80;41.00
80258;DHT22;69565;37.974;23.708;2023-08-30T05:32:09;29.80;41.90
80258;DHT22;69565;37.974;23.708;2023-08-30T05:34:34;29.90;40.70
80258;DHT22;69565;37.974;23.708;2023-08-30T05:37:00;29.90;40.40
80258;DHT22;69565;37.974;23.708;2023-08-30T05:39:26;30.00;40.20
80258;DHT22;69565;37.974;23.708;2023-08-30T05:41:52;30.00;40.00
80258;DHT22;69565;37.974;23.708;2023-08-30T05:44:17;30.10;39.70
80258;DHT22;69565;37.974;23.708;2023-08-30T05:46:43;30.20;39.30
80258;DHT22;69565;37.974;23.708;2023-08-30T05:49:09;30.30;39.30
80258;DHT22;69565;37.974;23.708;2023-08-30T05:51:34;30.30;39.00
80258;DHT22;69565;37.974;23.708;2023-08-30T05:54:00;30.40;38.80
80258;DHT22;69565;37.974;23.708;2023-08-30T05:56:26;30.50;38.60
80258;DHT22;69565;37.974;23.708;2023-08-30T05:58:52;30.60;38.40
80258;DHT22;69565;37.974;23.708;2023-08-30T06:01:18;30.60;38.10
80258;DHT22;69565;37.974;23.708;2023-08-30T06:03:45;30.70;38.00
80258;DHT22;69565;37.974;23.708;2023-08-30T06:06:13;30.70;37.70
80258;DHT22;69565;37.974;23.708;2023-08-30T06:08:39;30.80;37.40
80258;DHT22;69565;37.974;23.708;2023-08-30T06:11:04;30.90;37.20
80258;DHT22;69565;37.974;23.708;2023-08-30T06:13:30;31.00;37.00
80258;DHT22;69565;37.974;23.708;2023-08-30T06:15:56;31.00;36.70
80258;DHT22;69565;37.974;23.708;2023-08-30T06:18:21;31.10;36.60
80258;DHT22;69565;37.974;23.708;2023-08-30T06:20:47;31.10;36.40
80258;DHT22;69565;37.974;23.708;2023-08-30T06:23:14;31.20;36.30
80258;DHT22;69565;37.974;23.708;2023-08-30T06:25:40;31.30;36.00
80258;DHT22;69565;37.974;23.708;2023-08-30T06:28:06;31.30;35.80
80258;DHT22;69565;37.974;23.708;2023-08-30T06:30:32;31.40;35.70
80258;DHT22;69565;37.974;23.708;2023-08-30T06:32:57;31.40;35.60
80258;DHT22;69565;37.974;23.708;2023-08-30T06:35:24;31.50;35.50
80258;DHT22;69565;37.974;23.708;2023-08-30T06:37:50;31.60;35.50
80258;DHT22;69565;37.974;23.708;2023-08-30T06:40:15;31.60;35.20
80258;DHT22;69565;37.974;23.708;2023-08-30T06:42:42;31.70;35.00
80258;DHT22;69565;37.974;23.708;2023-08-30T06:45:08;31.70;34.70
80258;DHT22;69565;37.974;23.708;2023-08-30T06:47:35;31.80;34.60
80258;DHT22;69565;37.974;23.708;2023-08-30T06:50:01;31.90;34.40
80258;DHT22;69565;37.974;23.708;2023-08-30T06:52:27;31.90;34.30
80258;DHT22;69565;37.974;23.708;2023-08-30T06:54:53;32.00;34.00
80258;DHT22;69565;37.974;23.708;2023-08-30T06:57:18;32.10;33.70
80258;DHT22;69565;37.974;23.708;2023-08-30T06:59:44;32.10;33.10
80258;DHT22;69565;37.974;23.708;2023-08-30T07:02:10;32.20;32.80
80258;DHT22;69565;37.974;23.708;2023-08-30T07:04:36;32.20;32.50
80258;DHT22;69565;37.974;23.708;2023-08-30T07:07:01;32.20;32.00
80258;DHT22;69565;37.974;23.708;2023-08-30T07:09:28;32.30;31.80
80258;DHT22;69565;37.974;23.708;2023-08-30T07:11:55;32.40;31.70
80258;DHT22;69565;37.974;23.708;2023-08-30T07:14:20;32.40;31.30
80258;DHT22;69565;37.974;23.708;2023-08-30T07:16:46;32.50;31.20
80258;DHT22;69565;37.974;23.708;2023-08-30T07:19:15;32.60;30.90
80258;DHT22;69565;37.974;23.708;2023-08-30T07:21:42;32.60;31.80
80258;DHT22;69565;37.974;23.708;2023-08-30T07:24:08;32.50;30.60
80258;DHT22;69565;37.974;23.708;2023-08-30T07:26:33;32.50;30.60
80258;DHT22;69565;37.974;23.708;2023-08-30T07:28:59;32.50;30.50
80258;DHT22;69565;37.974;23.708;2023-08-30T07:31:25;32.50;30.60
80258;DHT22;69565;37.974;23.708;2023-08-30T07:33:51;32.40;30.70
80258;DHT22;69565;37.974;23.708;2023-08-30T07:36:17;32.40;31.10
80258;DHT22;69565;37.974;23.708;2023-08-30T07:38:42;32.20;31.30
80258;DHT22;69565;37.974;23.708;2023-08-30T07:41:09;32.20;31.70
80258;DHT22;69565;37.974;23.708;2023-08-30T07:43:35;32.10;31.90
80258;DHT22;69565;37.974;23.708;2023-08-30T07:46:01;32.00;32.10
80258;DHT22;69565;37.974;23.708;2023-08-30T07:48:26;31.90;32.30
80258;DHT22;69565;37.974;23.708;2023-08-30T07:50:52;31.90;32.70
80258;DHT22;69565;37.974;23.708;2023-08-30T07:53:18;31.80;32.70
80258;DHT22;69565;37.974;23.708;2023-08-30T07:55:50;31.70;32.70
80258;DHT22;69565;37.974;23.708;2023-08-30T07:58:19;31.60;32.90
80258;DHT22;69565;37.974;23.708;2023-08-30T08:00:45;31.60;32.90
80258;DHT22;69565;37.974;23.708;2023-08-30T08:03:10;31.50;33.20
80258;DHT22;69565;37.974;23.708;2023-08-30T08:05:36;31.40;33.20
80258;DHT22;69565;37.974;23.708;2023-08-30T08:08:03;31.40;33.30
80258;DHT22;69565;37.974;23.708;2023-08-30T08:10:33;31.30;33.40
80258;DHT22;69565;37.974;23.708;2023-08-30T08:12:59;31.30;33.30
80258;DHT22;69565;37.974;23.708;2023-08-30T08:15:25;31.30;33.30
80258;DHT22;69565;37.974;23.708;2023-08-30T08:17:51;31.30;33.40
80258;DHT22;69565;37.974;23.708;2023-08-30T08:20:17;31.30;33.20
80258;DHT22;69565;37.974;23.708;2023-08-30T08:22:43;31.20;33.20
80258;DHT22;69565;37.974;23.708;2023-08-30T08:25:08;31.20;33.00
80258;DHT22;69565;37.974;23.708;2023-08-30T08:27:36;31.20;32.90
80258;DHT22;69565;37.974;23.708;2023-08-30T08:30:03;31.20;32.90
80258;DHT22;69565;37.974;23.708;2023-08-30T08:32:29;31.20;33.90
80258;DHT22;69565;37.974;23.708;2023-08-30T08:34:57;31.20;32.90
80258;DHT22;69565;37.974;23.708;2023-08-30T08:37:22;31.20;32.90
80258;DHT22;69565;37.974;23.708;2023-08-30T08:39:48;31.20;32.80
80258;DHT22;69565;37.974;23.708;2023-08-30T08:42:21;31.20;32.70
80258;DHT22;69565;37.974;23.708;2023-08-30T08:44:51;31.20;32.70
80258;DHT22;69565;37.974;23.708;2023-08-30T08:47:19;31.20;32.70
80258;DHT22;69565;37.974;23.708;2023-08-30T08:49:46;31.20;32.50
80258;DHT22;69565;37.974;23.708;2023-08-30T08:52:14;31.20;32.40
80258;DHT22;69565;37.974;23.708;2023-08-30T08:54:40;31.20;32.20
80258;DHT22;69565;37.974;23.708;2023-08-30T08:57:09;31.20;32.20
80258;DHT22;69565;37.974;23.708;2023-08-30T08:59:35;31.10;32.00
80258;DHT22;69565;37.974;23.708;2023-08-30T09:02:01;31.10;32.10
80258;DHT22;69565;37.974;23.708;2023-08-30T09:04:30;31.10;32.00
80258;DHT22;69565;37.974;23.708;2023-08-30T09:06:59;31.10;32.00
80258;DHT22;69565;37.974;23.708;2023-08-30T09:09:25;31.10;32.00
80258;DHT22;69565;37.974;23.708;2023-08-30T09:11:51;31.00;32.00
80258;DHT22;69565;37.974;23.708;2023-08-30T09:14:18;31.00;32.10
80258;DHT22;69565;37.974;23.708;2023-08-30T09:16:54;31.00;32.00
80258;DHT22;69565;37.974;23.708;2023-08-30T09:19:21;31.10;32.00
80258;DHT22;69565;37.974;23.708;2023-08-30T09:21:55;31.00;31.90
80258;DHT22;69565;37.974;23.708;2023-08-30T09:24:21;31.00;31.90
80258;DHT22;69565;37.974;23.708;2023-08-30T09:26:56;31.00;31.80
80258;DHT22;69565;37.974;23.708;2023-08-30T09:29:22;31.00;31.90
80258;DHT22;69565;37.974;23.708;2023-08-30T09:31:52;31.00;31.90
80258;DHT22;69565;37.974;23.708;2023-08-30T09:34:24;31.00;31.70
80258;DHT22;69565;37.974;23.708;2023-08-30T09:36:54;31.00;31.50
80258;DHT22;69565;37.974;23.708;2023-08-30T09:39:21;31.00;31.40
80258;DHT22;69565;37.974;23.708;2023-08-30T09:41:50;31.00;31.30
80258;DHT22;69565;37.974;23.708;2023-08-30T09:44:20;31.00;31.30
80258;DHT22;69565;37.974;23.708;2023-08-30T09:46:53;31.00;31.20
80258;DHT22;69565;37.974;23.708;2023-08-30T09:49:21;30.90;31.20
80258;DHT22;69565;37.974;23.708;2023-08-30T09:51:49;31.00;31.20
80258;DHT22;69565;37.974;23.708;2023-08-30T09:54:17;30.90;31.00
80258;DHT22;69565;37.974;23.708;2023-08-30T09:56:44;30.90;31.00
80258;DHT22;69565;37.974;23.708;2023-08-30T09:59:13;30.80;31.00
80258;DHT22;69565;37.974;23.708;2023-08-30T10:01:43;30.80;31.00
80258;DHT22;69565;37.974;23.708;2023-08-30T10:04:11;30.90;30.90
80258;DHT22;69565;37.974;23.708;2023-08-30T10:06:38;30.80;30.90
80258;DHT22;69565;37.974;23.708;2023-08-30T10:09:05;30.80;30.80
80258;DHT22;69565;37.974;23.708;2023-08-30T10:11:40;30.80;30.70
80258;DHT22;69565;37.974;23.708;2023-08-30T10:14:06;30.80;30.70
80258;DHT22;69565;37.974;23.708;2023-08-30T10:16:49;30.70;30.60
80258;DHT22;69565;37.974;23.708;2023-08-30T10:19:28;30.80;30.70
80258;DHT22;69565;37.974;23.708;2023-08-30T10:22:08;30.70;30.60
80258;DHT22;69565;37.974;23.708;2023-08-30T10:24:41;30.70;30.70
80258;DHT22;69565;37.974;23.708;2023-08-30T10:27:08;30.70;30.60
80258;DHT22;69565;37.974;23.708;2023-08-30T10:29:35;30.70;30.80
80258;DHT22;69565;37.974;23.708;2023-08-30T10:32:05;30.70;30.70
80258;DHT22;69565;37.974;23.708;2023-08-30T10:34:32;30.70;30.80
80258;DHT22;69565;37.974;23.708;2023-08-30T10:37:00;30.70;30.70
80258;DHT22;69565;37.974;23.708;2023-08-30T10:39:37;30.70;30.70
80258;DHT22;69565;37.974;23.708;2023-08-30T10:42:14;30.70;30.90
80258;DHT22;69565;37.974;23.708;2023-08-30T10:44:50;30.70;30.70
80258;DHT22;69565;37.974;23.708;2023-08-30T10:47:35;30.70;30.90
80258;DHT22;69565;37.974;23.708;2023-08-30T10:50:11;30.60;31.00
80258;DHT22;69565;37.974;23.708;2023-08-30T10:52:38;30.70;31.10
80258;DHT22;69565;37.974;23.708;2023-08-30T10:55:13;30.70;30.90
80258;DHT22;69565;37.974;23.708;2023-08-30T10:57:43;30.60;30.80
80258;DHT22;69565;37.974;23.708;2023-08-30T11:00:19;30.70;30.60
80258;DHT22;69565;37.974;23.708;2023-08-30T11:02:48;30.70;30.50
80258;DHT22;69565;37.974;23.708;2023-08-30T11:05:20;30.60;30.20
80258;DHT22;69565;37.974;23.708;2023-08-30T11:07:46;30.60;30.00
80258;DHT22;69565;37.974;23.708;2023-08-30T11:10:14;30.60;30.00
80258;DHT22;69565;37.974;23.708;2023-08-30T11:12:41;30.60;30.00
80258;DHT22;69565;37.974;23.708;2023-08-30T11:15:09;30.60;30.00
80258;DHT22;69565;37.974;23.708;2023-08-30T11:17:35;30.60;30.00
80258;DHT22;69565;37.974;23.708;2023-08-30T11:20:08;30.60;30.00
80258;DHT22;69565;37.974;23.708;2023-08-30T11:22:43;30.60;30.00
80258;DHT22;69565;37.974;23.708;2023-08-30T11:25:14;30.70;29.90
80258;DHT22;69565;37.974;23.708;2023-08-30T11:27:41;30.70;29.90
80258;DHT22;69565;37.974;23.708;2023-08-30T11:30:08;30.70;30.00
80258;DHT22;69565;37.974;23.708;2023-08-30T11:32:41;30.60;30.00
80258;DHT22;69565;37.974;23.708;2023-08-30T11:35:10;30.60;30.00
80258;DHT22;69565;37.974;23.708;2023-08-30T11:37:36;30.60;30.20
80258;DHT22;69565;37.974;23.708;2023-08-30T11:40:03;30.60;30.30
80258;DHT22;69565;37.974;23.708;2023-08-30T11:42:30;30.60;30.40
80258;DHT22;69565;37.974;23.708;2023-08-30T11:44:58;30.60;30.60
80258;DHT22;69565;37.974;23.708;2023-08-30T11:47:24;30.60;30.70
80258;DHT22;69565;37.974;23.708;2023-08-30T11:49:53;30.60;30.90
80258;DHT22;69565;37.974;23.708;2023-08-30T11:52:20;30.60;31.00
80258;DHT22;69565;37.974;23.708;2023-08-30T11:54:50;30.50;31.00
80258;DHT22;69565;37.974;23.708;2023-08-30T11:57:16;30.50;31.30
80258;DHT22;69565;37.974;23.708;2023-08-30T11:59:42;30.50;31.30
80258;DHT22;69565;37.974;23.708;2023-08-30T12:02:08;30.50;31.50
80258;DHT22;69565;37.974;23.708;2023-08-30T12:04:41;30.50;31.60
80258;DHT22;69565;37.974;23.708;2023-08-30T12:07:07;30.50;31.70
80258;DHT22;69565;37.974;23.708;2023-08-30T12:09:33;30.40;31.60
80258;DHT22;69565;37.974;23.708;2023-08-30T12:12:10;30.40;32.40
80258;DHT22;69565;37.974;23.708;2023-08-30T12:14:39;30.50;31.70
80258;DHT22;69565;37.974;23.708;2023-08-30T12:17:05;30.50;31.70
80258;DHT22;69565;37.974;23.708;2023-08-30T12:19:31;30.50;31.80
80258;DHT22;69565;37.974;23.708;2023-08-30T12:22:04;30.40;31.90
80258;DHT22;69565;37.974;23.708;2023-08-30T12:24:41;30.40;32.00
80258;DHT22;69565;37.974;23.708;2023-08-30T12:27:07;30.40;32.00
80258;DHT22;69565;37.974;23.708;2023-08-30T12:29:32;30.40;32.00
80258;DHT22;69565;37.974;23.708;2023-08-30T12:31:58;30.40;32.10
80258;DHT22;69565;37.974;23.708;2023-08-30T12:34:24;30.40;32.00
80258;DHT22;69565;37.974;23.708;2023-08-30T12:36:49;30.40;33.00
80258;DHT22;69565;37.974;23.708;2023-08-30T12:39:15;30.40;32.00
80258;DHT22;69565;37.974;23.708;2023-08-30T12:41:42;30.40;32.00
80258;DHT22;69565;37.974;23.708;2023-08-30T12:44:08;30.40;32.00
80258;DHT22;69565;37.974;23.708;2023-08-30T12:46:34;30.40;32.10
80258;DHT22;69565;37.974;23.708;2023-08-30T12:48:59;30.40;32.00
80258;DHT22;69565;37.974;23.708;2023-08-30T12:51:25;30.40;32.00
80258;DHT22;69565;37.974;23.708;2023-08-30T12:53:51;30.40;32.00
80258;DHT22;69565;37.974;23.708;2023-08-30T12:56:17;30.40;32.00
80258;DHT22;69565;37.974;23.708;2023-08-30T12:58:42;30.30;32.00
80258;DHT22;69565;37.974;23.708;2023-08-30T13:01:08;30.30;32.00
80258;DHT22;69565;37.974;23.708;2023-08-30T13:03:34;30.30;31.90
80258;DHT22;69565;37.974;23.708;2023-08-30T13:05:59;30.30;31.90
80258;DHT22;69565;37.974;23.708;2023-08-30T13:08:25;30.20;31.80
80258;DHT22;69565;37.974;23.708;2023-08-30T13:10:51;30.20;31.70
80258;DHT22;69565;37.974;23.708;2023-08-30T13:13:16;30.20;31.80
80258;DHT22;69565;37.974;23.708;2023-08-30T13:15:42;30.30;32.00
80258;DHT22;69565;37.974;23.708;2023-08-30T13:18:08;30.30;32.50
80258;DHT22;69565;37.974;23.708;2023-08-30T13:20:38;30.30;33.10
80258;DHT22;69565;37.974;23.708;2023-08-30T13:23:03;30.30;33.50
80258;DHT22;69565;37.974;23.708;2023-08-30T13:25:29;30.30;34.10
80258;DHT22;69565;37.974;23.708;2023-08-30T13:27:55;30.20;34.40
80258;DHT22;69565;37.974;23.708;2023-08-30T13:30:20;30.20;34.80
80258;DHT22;69565;37.974;23.708;2023-08-30T13:32:46;30.20;35.20
80258;DHT22;69565;37.974;23.708;2023-08-30T13:35:12;30.20;35.50
80258;DHT22;69565;37.974;23.708;2023-08-30T13:37:37;30.20;36.00
80258;DHT22;69565;37.974;23.708;2023-08-30T13:40:03;30.20;36.40
80258;DHT22;69565;37.974;23.708;2023-08-30T13:42:32;30.20;36.80
80258;DHT22;69565;37.974;23.708;2023-08-30T13:44:58;30.20;36.80
80258;DHT22;69565;37.974;23.708;2023-08-30T13:47:24;30.20;37.10
80258;DHT22;69565;37.974;23.708;2023-08-30T13:49:49;30.20;37.30
80258;DHT22;69565;37.974;23.708;2023-08-30T13:52:15;30.20;37.40
80258;DHT22;69565;37.974;23.708;2023-08-30T13:54:41;30.20;37.50
80258;DHT22;69565;37.974;23.708;2023-08-30T13:57:07;30.10;37.60
80258;DHT22;69565;37.974;23.708;2023-08-30T13:59:33;30.10;37.80
80258;DHT22;69565;37.974;23.708;2023-08-30T14:02:02;30.20;37.80
80258;DHT22;69565;37.974;23.708;2023-08-30T14:04:29;30.10;37.80
80258;DHT22;69565;37.974;23.708;2023-08-30T14:06:58;30.20;37.90
80258;DHT22;69565;37.974;23.708;2023-08-30T14:09:23;30.10;37.90
80258;DHT22;69565;37.974;23.708;2023-08-30T14:11:49;30.10;38.10
80258;DHT22;69565;37.974;23.708;2023-08-30T14:14:15;30.10;38.00
80258;DHT22;69565;37.974;23.708;2023-08-30T14:16:41;30.10;38.00
80258;DHT22;69565;37.974;23.708;2023-08-30T14:19:07;30.10;38.10
80258;DHT22;69565;37.974;23.708;2023-08-30T14:21:33;30.10;38.20
80258;DHT22;69565;37.974;23.708;2023-08-30T14:23:59;30.10;38.10
80258;DHT22;69565;37.974;23.708;2023-08-30T14:26:26;30.10;38.20
80258;DHT22;69565;37.974;23.708;2023-08-30T14:28:51;30.10;38.20
80258;DHT22;69565;37.974;23.708;2023-08-30T14:31:17;30.00;38.30
80258;DHT22;69565;37.974;23.708;2023-08-30T14:33:43;30.00;38.40
80258;DHT22;69565;37.974;23.708;2023-08-30T14:36:13;30.00;38.50
80258;DHT22;69565;37.974;23.708;2023-08-30T14:38:39;30.00;38.50
80258;DHT22;69565;37.974;23.708;2023-08-30T14:41:06;30.00;38.50
80258;DHT22;69565;37.974;23.708;2023-08-30T14:43:32;30.00;38.60
80258;DHT22;69565;37.974;23.708;2023-08-30T14:46:05;30.00;38.60
80258;DHT22;69565;37.974;23.708;2023-08-30T14:48:32;30.00;38.70
80258;DHT22;69565;37.974;23.708;2023-08-30T14:50:59;30.00;38.80
80258;DHT22;69565;37.974;23.708;2023-08-30T14:53:25;30.00;38.90
80258;DHT22;69565;37.974;23.708;2023-08-30T14:55:50;29.90;38.90
80258;DHT22;69565;37.974;23.708;2023-08-30T14:58:16;30.00;38.90
80258;DHT22;69565;37.974;23.708;2023-08-30T15:00:42;29.90;38.80
80258;DHT22;69565;37.974;23.708;2023-08-30T15:03:07;29.90;38.80
80258;DHT22;69565;37.974;23.708;2023-08-30T15:05:33;29.90;38.80
80258;DHT22;69565;37.974;23.708;2023-08-30T15:07:59;29.90;38.80
80258;DHT22;69565;37.974;23.708;2023-08-30T15:10:25;29.90;38.80
80258;DHT22;69565;37.974;23.708;2023-08-30T15:12:51;29.90;38.80
80258;DHT22;69565;37.974;23.708;2023-08-30T15:15:16;29.90;38.80
80258;DHT22;69565;37.974;23.708;2023-08-30T15:17:44;29.90;38.60